Time,TemperatureF,DewpointF,PressureIn,WindDirection,WindDirectionDegrees,WindSpeedMPH,WindSpeedGustMPH,Humidity,HourlyPrecipIn,Conditions,Clouds,dailyrainin,SolarRadiationWatts/m^2,SoftwareType,DateUTC
2013-01-09 00:07:00,24.6,22.0,30.38,NW,319,1.0,1.0,91,0.00,,,0.00,0,weatherlink.com 1.10,2013-01-09 05:07:00,
2013-01-09 00:22:00,24.2,22.0,30.38,North,5,0.0,2.0,92,0.00,,,0.00,0,weatherlink.com 1.10,2013-01-09 05:22:00,
2013-01-09 00:37:00,23.9,22.0,30.38,North,5,0.0,0.0,92,0.00,,,0.00,0,weatherlink.com 1.10,2013-01-09 05:37:00,
2013-01-09 00:52:00,23.7,22.0,30.38,North,5,0.0,0.0,93,0.00,,,0.00,0,weatherlink.com 1.10,2013-01-09 05:52:00,
2013-01-09 01:07:00,23.6,22.0,30.38,North,5,0.0,0.0,93,0.00,,,0.00,0,weatherlink.com 1.10,2013-01-09 06:07:00,
2013-01-09 01:22:00,23.6,22.0,30.38,North,5,0.0,0.0,93,0.00,,,0.00,0,weatherlink.com 1.10,2013-01-09 06:22:00,
2013-01-09 01:37:00,23.3,22.0,30.37,North,5,0.0,2.0,93,0.00,,,0.00,0,weatherlink.com 1.10,2013-01-09 06:37:00,
2013-01-09 01:52:00,23.1,21.0,30.38,North,5,0.0,0.0,93,0.00,,,0.00,0,weatherlink.com 1.10,2013-01-09 06:52:00,
2013-01-09 02:07:00,22.9,22.0,30.38,North,5,0.0,0.0,94,0.00,,,0.00,0,weatherlink.com 1.10,2013-01-09 07:07:00,
2013-01-09 02:22:00,22.6,21.0,30.38,North,5,0.0,0.0,93,0.00,,,0.00,0,weatherlink.com 1.10,2013-01-09 07:22:00,
2013-01-09 02:37:00,22.3,21.0,30.38,North,5,0.0,0.0,93,0.00,,,0.00,0,weatherlink.com 1.10,2013-01-09 07:37:00,
2013-01-09 02:52:00,22.0,21.0,30.38,North,5,0.0,0.0,94,0.00,,,0.00,0,weatherlink.com 1.10,2013-01-09 07:52:00,
2013-01-09 03:08:00,21.7,20.0,30.38,North,5,0.0,0.0,94,0.00,,,0.00,0,weatherlink.com 1.10,2013-01-09 08:08:00,
2013-01-09 03:23:00,21.5,20.0,30.38,North,5,0.0,0.0,93,0.00,,,0.00,0,weatherlink.com 1.10,2013-01-09 08:23:00,
2013-01-09 03:38:00,21.1,19.0,30.39,North,5,0.0,0.0,93,0.00,,,0.00,0,weatherlink.com 1.10,2013-01-09 08:38:00,
2013-01-09 03:55:00,20.7,19.0,30.37,North,5,0.0,0.0,93,0.00,,,0.00,0,weatherlink.com 1.10,2013-01-09 08:55:00,
2013-01-09 04:10:00,20.4,19.0,30.37,North,5,0.0,0.0,93,0.00,,,0.00,0,weatherlink.com 1.10,2013-01-09 09:10:00,
2013-01-09 04:26:00,20.0,18.0,30.36,North,5,0.0,0.0,93,0.00,,,0.00,0,weatherlink.com 1.10,2013-01-09 09:26:00,
2013-01-09 04:42:00,19.7,18.0,30.37,North,5,0.0,0.0,93,0.00,,,0.00,0,weatherlink.com 1.10,2013-01-09 09:42:00,
2013-01-09 04:59:00,19.4,18.0,30.37,North,5,0.0,0.0,94,0.00,,,0.00,0,weatherlink.com 1.10,2013-01-09 09:59:00,
2013-01-09 05:15:00,19.1,17.0,30.37,North,5,0.0,0.0,93,0.00,,,0.00,0,weatherlink.com 1.10,2013-01-09 10:15:00,
2013-01-09 05:31:00,18.8,17.0,30.37,North,5,0.0,0.0,94,0.00,,,0.00,0,weatherlink.com 1.10,2013-01-09 10:31:00,
2013-01-09 05:46:00,18.7,17.0,30.38,North,5,0.0,0.0,94,0.00,,,0.00,0,weatherlink.com 1.10,2013-01-09 10:46:00,
2013-01-09 06:02:00,18.6,17.0,30.38,North,5,0.0,0.0,94,0.00,,,0.00,0,weatherlink.com 1.10,2013-01-09 11:02:00,
2013-01-09 06:19:00,18.2,17.0,30.38,North,5,0.0,0.0,94,0.00,,,0.00,0,weatherlink.com 1.10,2013-01-09 11:19:00,
2013-01-09 06:35:00,18.0,17.0,30.39,North,5,0.0,0.0,94,0.00,,,0.00,0,weatherlink.com 1.10,2013-01-09 11:35:00,
2013-01-09 06:51:00,18.2,17.0,30.38,North,5,0.0,0.0,94,0.00,,,0.00,0,weatherlink.com 1.10,2013-01-09 11:51:00,
2013-01-09 07:07:00,18.4,17.0,30.38,North,5,0.0,0.0,95,0.00,,,0.00,0,weatherlink.com 1.10,2013-01-09 12:07:00,
2013-01-09 07:23:00,18.4,17.0,30.38,North,5,0.0,0.0,95,0.00,,,0.00,9,weatherlink.com 1.10,2013-01-09 12:23:00,
2013-01-09 07:38:00,18.6,17.0,30.39,North,5,0.0,0.0,95,0.00,,,0.00,28,weatherlink.com 1.10,2013-01-09 12:38:00,
2013-01-09 07:55:00,19.1,18.0,30.38,North,5,0.0,0.0,95,0.00,,,0.00,54,weatherlink.com 1.10,2013-01-09 12:55:00,
2013-01-09 08:11:00,19.9,19.0,30.38,North,5,0.0,0.0,96,0.00,,,0.00,83,weatherlink.com 1.10,2013-01-09 13:11:00,
2013-01-09 08:27:00,22.5,22.0,30.38,North,5,0.0,1.0,97,0.00,,,0.00,156,weatherlink.com 1.10,2013-01-09 13:27:00,
2013-01-09 08:43:00,25.0,24.0,30.38,North,5,0.0,2.0,97,0.00,,,0.00,220,weatherlink.com 1.10,2013-01-09 13:43:00,
2013-01-09 09:00:00,26.9,26.0,30.37,North,5,0.0,0.0,97,0.00,,,0.00,137,weatherlink.com 1.10,2013-01-09 14:00:00,
2013-01-09 09:16:00,27.7,27.0,30.38,WNW,285,1.0,3.0,96,0.00,,,0.00,123,weatherlink.com 1.10,2013-01-09 14:16:00,
2013-01-09 09:31:00,27.9,26.0,30.37,WNW,286,0.0,2.0,92,0.00,,,0.00,123,weatherlink.com 1.10,2013-01-09 14:31:00,
2013-01-09 09:47:00,29.1,26.0,30.38,WNW,286,0.0,2.0,89,0.00,,,0.00,158,weatherlink.com 1.10,2013-01-09 14:47:00,
2013-01-09 10:03:00,30.8,28.0,30.36,WNW,286,0.0,1.0,88,0.00,,,0.00,169,weatherlink.com 1.10,2013-01-09 15:03:00,
2013-01-09 10:20:00,32.6,28.0,30.35,WNW,286,0.0,1.0,84,0.00,,,0.00,181,weatherlink.com 1.10,2013-01-09 15:20:00,
2013-01-09 10:36:00,34.4,29.0,30.34,West,259,0.0,2.0,79,0.00,,,0.00,172,weatherlink.com 1.10,2013-01-09 15:36:00,
2013-01-09 10:52:00,35.9,30.0,30.33,SW,233,0.0,3.0,78,0.01,,,0.01,174,weatherlink.com 1.10,2013-01-09 15:52:00,
2013-01-09 11:08:00,36.0,30.0,30.30,South,181,1.0,3.0,78,0.01,,,0.01,172,weatherlink.com 1.10,2013-01-09 16:08:00,
2013-01-09 11:24:00,36.2,30.0,30.29,SSE,167,0.0,3.0,77,0.01,,,0.01,163,weatherlink.com 1.10,2013-01-09 16:24:00,
2013-01-09 11:40:00,35.7,29.0,30.25,SSE,149,4.0,5.0,77,0.01,,,0.01,178,weatherlink.com 1.10,2013-01-09 16:40:00,
2013-01-09 11:56:00,36.6,29.0,30.25,SSW,202,1.0,5.0,73,0.01,,,0.02,193,weatherlink.com 1.10,2013-01-09 16:56:00,
2013-01-09 12:12:00,37.5,29.0,30.26,West,259,4.0,9.0,71,0.01,,,0.02,197,weatherlink.com 1.10,2013-01-09 17:12:00,
2013-01-09 12:29:00,37.9,29.0,30.24,WNW,283,1.0,9.0,70,0.02,,,0.03,199,weatherlink.com 1.10,2013-01-09 17:29:00,
2013-01-09 12:45:00,39.1,30.0,30.23,West,270,0.0,8.0,69,0.02,,,0.04,211,weatherlink.com 1.10,2013-01-09 17:45:00,
2013-01-09 13:01:00,39.8,30.0,30.25,WSW,252,4.0,7.0,68,0.02,,,0.04,169,weatherlink.com 1.10,2013-01-09 18:01:00,
2013-01-09 13:16:00,40.2,31.0,30.24,West,271,1.0,5.0,69,0.02,,,0.05,86,weatherlink.com 1.10,2013-01-09 18:16:00,
2013-01-09 13:32:00,39.9,31.0,30.23,WSW,252,0.0,4.0,70,0.02,,,0.05,70,weatherlink.com 1.10,2013-01-09 18:32:00,
2013-01-09 13:49:00,40.0,31.0,30.21,WSW,246,0.0,8.0,71,0.01,,,0.05,163,weatherlink.com 1.10,2013-01-09 18:49:00,
2013-01-09 14:21:00,40.0,32.0,30.19,SW,219,0.0,7.0,73,0.01,,,0.06,58,weatherlink.com 1.10,2013-01-09 19:21:00,
2013-01-09 14:38:00,39.9,32.0,30.18,SW,226,1.0,8.0,74,0.02,,,0.07,25,weatherlink.com 1.10,2013-01-09 19:38:00,
2013-01-09 14:52:00,39.7,33.0,30.16,South,180,3.0,9.0,76,0.02,,,0.07,25,weatherlink.com 1.10,2013-01-09 19:52:00,
2013-01-09 15:09:00,39.3,33.0,30.11,SSW,207,1.0,8.0,78,0.01,,,0.07,26,weatherlink.com 1.10,2013-01-09 20:09:00,
2013-01-09 15:25:00,38.9,33.0,30.13,West,273,3.0,11.0,80,0.01,,,0.07,21,weatherlink.com 1.10,2013-01-09 20:25:00,
2013-01-09 15:43:00,38.6,34.0,30.11,SW,223,3.0,11.0,82,0.00,,,0.07,30,weatherlink.com 1.10,2013-01-09 20:43:00,
2013-01-09 15:56:00,38.3,34.0,30.11,WSW,257,7.0,13.0,83,0.00,,,0.07,16,weatherlink.com 1.10,2013-01-09 20:56:00,
2013-01-09 16:11:00,38.2,34.0,30.10,West,268,1.0,8.0,84,0.01,,,0.08,11,weatherlink.com 1.10,2013-01-09 21:11:00,
2013-01-09 16:26:00,38.1,34.0,30.10,WSW,244,3.0,7.0,84,0.01,,,0.08,7,weatherlink.com 1.10,2013-01-09 21:26:00,
2013-01-09 16:41:00,38.0,34.0,30.11,West,279,4.0,10.0,85,0.01,,,0.08,0,weatherlink.com 1.10,2013-01-09 21:41:00,
2013-01-09 16:56:00,38.3,34.0,30.11,SW,234,5.0,14.0,85,0.01,,,0.08,0,weatherlink.com 1.10,2013-01-09 21:56:00,
2013-01-09 17:11:00,38.5,34.0,30.11,WSW,241,11.0,13.0,84,0.00,,,0.08,0,weatherlink.com 1.10,2013-01-09 22:11:00,
2013-01-09 17:26:00,38.5,34.0,30.10,WSW,245,3.0,11.0,84,0.01,,,0.09,0,weatherlink.com 1.10,2013-01-09 22:26:00,
2013-01-09 17:42:00,38.2,34.0,30.10,WSW,248,8.0,14.0,84,0.01,,,0.09,0,weatherlink.com 1.10,2013-01-09 22:42:00,
2013-01-09 17:57:00,38.2,34.0,30.09,West,260,8.0,14.0,85,0.01,,,0.09,0,weatherlink.com 1.10,2013-01-09 22:57:00,
2013-01-09 18:12:00,38.2,34.0,30.10,WSW,253,3.0,14.0,85,0.01,,,0.09,0,weatherlink.com 1.10,2013-01-09 23:12:00,
2013-01-09 18:27:00,38.2,34.0,30.10,WNW,290,7.0,17.0,85,0.00,,,0.09,0,weatherlink.com 1.10,2013-01-09 23:27:00,
2013-01-09 18:42:00,38.0,34.0,30.10,NW,311,4.0,12.0,85,0.00,,,0.09,0,weatherlink.com 1.10,2013-01-09 23:42:00,
2013-01-09 18:57:00,37.9,34.0,30.11,West,278,1.0,11.0,85,0.00,,,0.09,0,weatherlink.com 1.10,2013-01-09 23:57:00,
2013-01-09 19:12:00,37.8,34.0,30.12,WNW,285,6.0,15.0,86,0.00,,,0.09,0,weatherlink.com 1.10,2013-01-10 00:12:00,
2013-01-09 19:27:00,38.7,35.0,30.11,WNW,283,5.0,17.0,85,0.00,,,0.09,0,weatherlink.com 1.10,2013-01-10 00:27:00,
2013-01-09 19:42:00,39.2,35.0,30.11,NNW,338,4.0,19.0,84,0.00,,,0.09,0,weatherlink.com 1.10,2013-01-10 00:42:00,
2013-01-09 19:57:00,39.9,35.0,30.12,NW,304,11.0,21.0,83,0.00,,,0.09,0,weatherlink.com 1.10,2013-01-10 00:57:00,
2013-01-09 20:12:00,40.1,35.0,30.11,West,277,9.0,15.0,82,0.00,,,0.09,0,weatherlink.com 1.10,2013-01-10 01:12:00,
2013-01-09 20:27:00,40.0,35.0,30.11,WSW,252,5.0,11.0,82,0.00,,,0.09,0,weatherlink.com 1.10,2013-01-10 01:27:00,
2013-01-09 20:43:00,40.2,35.0,30.11,West,262,3.0,18.0,81,0.01,,,0.10,0,weatherlink.com 1.10,2013-01-10 01:43:00,
2013-01-09 20:59:00,40.2,35.0,30.11,WNW,286,3.0,15.0,82,0.01,,,0.10,0,weatherlink.com 1.10,2013-01-10 01:59:00,
2013-01-09 21:14:00,40.5,35.0,30.11,WNW,302,6.0,15.0,81,0.01,,,0.10,0,weatherlink.com 1.10,2013-01-10 02:14:00,
2013-01-09 21:30:00,40.8,35.0,30.11,West,272,4.0,16.0,81,0.00,,,0.10,0,weatherlink.com 1.10,2013-01-10 02:30:00,
2013-01-09 21:47:00,40.9,35.0,30.12,WNW,286,4.0,15.0,80,0.00,,,0.10,0,weatherlink.com 1.10,2013-01-10 02:47:00,
2013-01-09 22:03:00,40.5,35.0,30.12,West,265,5.0,12.0,80,0.00,,,0.10,0,weatherlink.com 1.10,2013-01-10 03:03:00,
2013-01-09 22:19:00,39.9,34.0,30.13,WNW,288,4.0,9.0,80,0.01,,,0.11,0,weatherlink.com 1.10,2013-01-10 03:19:00,
2013-01-09 22:35:00,39.6,34.0,30.13,WNW,296,7.0,13.0,79,0.01,,,0.11,0,weatherlink.com 1.10,2013-01-10 03:35:00,
2013-01-09 22:51:00,39.4,33.0,30.13,NW,309,9.0,17.0,79,0.01,,,0.11,0,weatherlink.com 1.10,2013-01-10 03:51:00,
2013-01-09 23:07:00,38.9,33.0,30.14,NW,308,9.0,11.0,80,0.01,,,0.11,0,weatherlink.com 1.10,2013-01-10 04:07:00,
2013-01-09 23:23:00,38.2,33.0,30.14,NW,311,9.0,11.0,80,0.00,,,0.11,0,weatherlink.com 1.10,2013-01-10 04:23:00,
2013-01-09 23:39:00,37.9,32.0,30.14,NW,313,2.0,14.0,79,0.00,,,0.11,0,weatherlink.com 1.10,2013-01-10 04:39:00,
2013-01-09 23:55:00,37.7,32.0,30.15,NNW,338,4.0,10.0,79,0.00,,,0.11,0,weatherlink.com 1.10,2013-01-10 04:55:00,